createdAt,value
2022-11-22T00:01:19.750Z,5.00
2022-11-22T00:03:58.052Z,5.00
2022-11-22T00:06:26.862Z,4.90
2022-11-22T00:08:55.247Z,4.80
2022-11-22T00:11:23.562Z,4.80
2022-11-22T00:13:51.979Z,4.80
2022-11-22T00:16:21.766Z,4.70
2022-11-22T00:18:49.976Z,4.70
2022-11-22T00:21:18.400Z,4.80
2022-11-22T00:23:46.594Z,4.80
2022-11-22T00:26:15.037Z,4.90
2022-11-22T00:28:43.454Z,4.90
2022-11-22T00:31:12.019Z,5.00
2022-11-22T00:33:41.870Z,5.00
2022-11-22T00:36:10.388Z,5.00
2022-11-22T00:38:38.839Z,5.00
2022-11-22T00:41:07.332Z,4.80
2022-11-22T00:43:35.798Z,4.80
2022-11-22T00:46:04.154Z,4.80
2022-11-22T00:48:32.450Z,4.80
2022-11-22T00:51:02.317Z,4.90
2022-11-22T00:53:30.741Z,5.00
2022-11-22T00:55:59.079Z,5.00
2022-11-22T00:58:27.534Z,5.00
2022-11-22T01:00:56.959Z,5.00
2022-11-22T01:03:25.355Z,5.10
2022-11-22T01:05:53.702Z,5.10
2022-11-22T01:08:31.893Z,5.10
2022-11-22T01:11:09.400Z,5.00
2022-11-22T01:13:39.179Z,5.00
2022-11-22T01:16:09.625Z,4.90
2022-11-22T01:18:38.439Z,4.90
2022-11-22T01:21:07.602Z,4.80
2022-11-22T01:23:37.885Z,4.70
2022-11-22T01:26:09.473Z,4.60
2022-11-22T01:28:38.250Z,4.50
2022-11-22T01:31:06.485Z,4.60
2022-11-22T01:33:34.862Z,4.50
2022-11-22T01:36:03.218Z,4.60
2022-11-22T01:38:31.471Z,4.50
2022-11-22T01:41:01.149Z,4.50
2022-11-22T01:43:30.470Z,4.40
2022-11-22T01:46:00.241Z,4.50
2022-11-22T01:48:39.455Z,4.50
2022-11-22T01:51:18.595Z,4.50
2022-11-22T01:53:48.191Z,4.60
2022-11-22T01:56:20.820Z,4.50
2022-11-22T01:58:54.414Z,4.60
2022-11-22T02:01:22.776Z,4.60
2022-11-22T02:03:54.022Z,4.60
2022-11-22T02:06:24.585Z,4.60
2022-11-22T02:08:57.944Z,4.60
2022-11-22T02:11:34.068Z,4.60
2022-11-22T02:14:05.520Z,4.60
2022-11-22T02:16:35.779Z,4.60
2022-11-22T02:19:04.874Z,4.70
2022-11-22T02:21:33.266Z,4.70
2022-11-22T02:24:07.945Z,4.70
2022-11-22T02:26:37.742Z,4.70
2022-11-22T02:29:09.045Z,4.70
2022-11-22T02:31:40.819Z,4.70
2022-11-22T02:34:09.217Z,4.70
2022-11-22T02:36:43.427Z,4.70
2022-11-22T02:39:14.040Z,4.60
2022-11-22T02:41:48.909Z,4.60
2022-11-22T02:44:19.318Z,4.40
2022-11-22T02:46:55.247Z,4.30
2022-11-22T02:49:27.832Z,4.30
2022-11-22T02:51:57.278Z,4.30
2022-11-22T02:54:26.961Z,4.20
2022-11-22T02:56:59.242Z,4.20
2022-11-22T02:59:29.687Z,4.30
2022-11-22T03:02:03.204Z,4.30
2022-11-22T03:04:40.752Z,4.20
2022-11-22T03:07:12.267Z,4.20
2022-11-22T03:09:43.864Z,4.20
2022-11-22T03:12:16.298Z,4.20
2022-11-22T03:14:51.334Z,4.20
2022-11-22T03:17:21.491Z,4.20
2022-11-22T03:19:52.546Z,4.20
2022-11-22T03:22:27.207Z,4.20
2022-11-22T03:24:55.410Z,4.30
2022-11-22T03:27:26.796Z,4.20
2022-11-22T03:29:56.387Z,4.30
2022-11-22T03:35:40.979Z,4.40
2022-11-22T03:38:09.268Z,4.30
2022-11-22T03:40:37.599Z,4.40
2022-11-22T03:43:07.529Z,4.40
2022-11-22T03:45:35.712Z,4.40
2022-11-22T03:48:03.911Z,4.40
2022-11-22T03:50:33.668Z,4.30
2022-11-22T03:53:01.856Z,4.20
2022-11-22T03:55:30.105Z,4.30
2022-11-22T03:57:58.415Z,4.30
2022-11-22T04:00:28.153Z,4.30
2022-11-22T04:02:56.477Z,4.40
2022-11-22T04:05:24.764Z,4.40
2022-11-22T04:07:57.208Z,4.40
2022-11-22T04:10:26.161Z,4.30
2022-11-22T04:12:58.333Z,4.40
2022-11-22T04:15:27.896Z,4.40
2022-11-22T04:17:56.142Z,4.40
2022-11-22T04:20:50.462Z,4.30
2022-11-22T04:23:22.460Z,4.40
2022-11-22T04:25:51.090Z,4.40
2022-11-22T04:28:40.482Z,4.40
2022-11-22T04:31:30.012Z,4.40
2022-11-22T04:33:58.161Z,4.40
2022-11-22T04:36:27.751Z,4.40
2022-11-22T04:39:00.335Z,4.40
2022-11-22T04:41:28.648Z,4.50
2022-11-22T04:44:19.149Z,4.40
2022-11-22T04:47:18.151Z,4.50
2022-11-22T04:49:48.134Z,4.50
2022-11-22T04:52:33.741Z,4.50
2022-11-22T04:55:02.008Z,4.60
2022-11-22T04:57:30.270Z,4.50
2022-11-22T05:00:12.312Z,4.50
2022-11-22T05:02:45.149Z,4.50
2022-11-22T05:05:15.482Z,4.50
2022-11-22T05:07:46.153Z,4.60
2022-11-22T05:10:22.782Z,4.60
2022-11-22T05:12:54.539Z,4.50
2022-11-22T05:15:24.074Z,4.60
2022-11-22T05:17:57.555Z,4.60
2022-11-22T05:20:26.041Z,4.50
2022-11-22T05:23:20.536Z,4.50
2022-11-22T05:25:50.903Z,4.60
2022-11-22T05:31:28.920Z,4.60
2022-11-22T05:33:59.896Z,4.60
2022-11-22T05:36:28.193Z,4.60
2022-11-22T05:39:01.831Z,4.70
2022-11-22T05:41:39.067Z,4.70
2022-11-22T05:44:10.233Z,4.70
2022-11-22T05:46:43.519Z,4.70
2022-11-22T05:49:14.079Z,4.80
2022-11-22T05:51:48.491Z,4.70
2022-11-22T05:54:16.800Z,4.70
2022-11-22T05:56:45.037Z,4.80
2022-11-22T05:59:16.805Z,4.80
2022-11-22T06:01:47.091Z,4.70
2022-11-22T06:04:21.255Z,4.80
2022-11-22T06:07:23.858Z,4.80
2022-11-22T06:18:50.386Z,4.90
2022-11-22T06:22:07.188Z,4.90
2022-11-22T06:24:46.318Z,4.90
2022-11-22T06:27:15.757Z,5.10
2022-11-22T06:30:03.766Z,5.00
2022-11-22T06:33:06.336Z,5.00
2022-11-22T06:35:37.748Z,5.00
2022-11-22T06:38:52.799Z,5.10
2022-11-22T06:42:03.857Z,5.10
2022-11-22T06:44:39.287Z,5.10
2022-11-22T06:47:13.644Z,5.20
2022-11-22T06:49:51.864Z,5.20
2022-11-22T06:52:45.857Z,5.20
2022-11-22T06:55:48.497Z,5.20
2022-11-22T06:58:06.968Z,5.20
2022-11-22T07:00:39.757Z,5.40
2022-11-22T07:03:08.562Z,5.30
2022-11-22T07:06:11.927Z,5.20
2022-11-22T07:08:44.168Z,5.20
2022-11-22T07:11:34.418Z,5.10
2022-11-22T07:14:35.896Z,5.20
2022-11-22T07:21:12.130Z,5.20
2022-11-22T07:23:53.459Z,5.20
2022-11-22T07:26:25.645Z,5.30
2022-11-22T07:28:55.924Z,5.20
2022-11-22T07:31:29.122Z,5.30
2022-11-22T07:36:48.167Z,5.20
2022-11-22T07:39:16.795Z,5.30
2022-11-22T07:44:42.588Z,5.30
2022-11-22T07:47:17.190Z,5.30
2022-11-22T07:49:49.843Z,5.40
2022-11-22T07:53:29.294Z,5.50
2022-11-22T07:56:12.222Z,5.50
2022-11-22T07:58:40.589Z,5.40
2022-11-22T08:01:10.476Z,5.50
2022-11-22T08:03:43.158Z,5.60
2022-11-22T08:06:31.151Z,5.60
2022-11-22T08:09:04.729Z,5.60
2022-11-22T08:11:44.361Z,5.70
2022-11-22T08:14:25.079Z,5.80
2022-11-22T08:17:21.490Z,5.70
2022-11-22T08:20:31.010Z,5.90
2022-11-22T08:23:10.490Z,5.90
2022-11-22T08:26:12.214Z,6.00
2022-11-22T08:32:04.766Z,6.00
2022-11-22T08:34:46.878Z,5.90
2022-11-22T08:37:36.153Z,5.90
2022-11-22T08:40:17.041Z,6.00
2022-11-22T08:42:46.757Z,6.00
2022-11-22T08:45:17.751Z,6.00
2022-11-22T08:47:56.124Z,5.90
2022-11-22T08:50:24.585Z,5.90
2022-11-22T08:52:57.905Z,6.00
2022-11-22T08:55:28.891Z,6.00
2022-11-22T08:58:26.611Z,6.10
2022-11-22T09:01:01.435Z,6.10
2022-11-22T09:03:30.244Z,6.20
2022-11-22T09:08:58.603Z,6.40
2022-11-22T09:11:38.742Z,6.40
2022-11-22T09:14:42.839Z,6.30
2022-11-22T09:17:41.339Z,6.40
2022-11-22T09:20:34.143Z,6.30
2022-11-22T09:23:15.928Z,6.50
2022-11-22T09:26:00.480Z,6.50
2022-11-22T09:28:34.486Z,6.60
2022-11-22T09:31:06.038Z,6.80
2022-11-22T09:33:35.928Z,6.90
2022-11-22T09:36:06.056Z,6.90
2022-11-22T09:38:35.656Z,6.80
2022-11-22T09:41:06.595Z,6.70
2022-11-22T09:43:47.073Z,6.70
2022-11-22T09:46:32.704Z,6.70
2022-11-22T09:49:29.751Z,6.80
2022-11-22T09:52:06.016Z,6.80
2022-11-22T09:54:45.683Z,6.80
2022-11-22T09:57:20.895Z,6.80
2022-11-22T10:00:03.275Z,6.70
2022-11-22T10:03:04.899Z,6.70
2022-11-22T10:05:47.513Z,6.90
2022-11-22T10:08:27.355Z,6.90
2022-11-22T10:10:59.105Z,7.00
2022-11-22T10:14:12.544Z,6.90
2022-11-22T10:17:01.179Z,6.90
2022-11-22T10:19:39.196Z,6.70
2022-11-22T10:22:12.980Z,6.80
2022-11-22T10:25:09.348Z,6.80
2022-11-22T10:28:10.368Z,6.90
2022-11-22T10:31:11.848Z,7.00
2022-11-22T10:33:54.784Z,7.00
2022-11-22T10:36:35.890Z,6.80
2022-11-22T10:39:20.819Z,6.90
2022-11-22T10:42:08.872Z,7.00
2022-11-22T10:44:47.624Z,6.80
2022-11-22T10:47:33.009Z,7.10
2022-11-22T10:50:27.513Z,7.00
2022-11-22T10:53:03.095Z,6.90
2022-11-22T10:55:49.100Z,7.10
2022-11-22T10:58:24.656Z,6.90
2022-11-22T11:01:00.108Z,6.90
2022-11-22T11:03:38.587Z,6.80
2022-11-22T11:06:43.614Z,6.90
2022-11-22T11:10:13.716Z,7.10
2022-11-22T11:13:03.600Z,7.20
2022-11-22T11:16:01.620Z,7.30
2022-11-22T11:18:43.241Z,7.10
2022-11-22T11:21:15.770Z,6.90
2022-11-22T11:23:54.214Z,7.10
2022-11-22T11:36:30.117Z,7.10
2022-11-22T11:39:02.143Z,7.00
2022-11-22T11:41:59.524Z,7.30
2022-11-22T11:44:32.319Z,7.40
2022-11-22T11:47:03.085Z,7.30
2022-11-22T11:49:33.674Z,7.30
2022-11-22T11:52:05.065Z,7.10
2022-11-22T11:54:43.951Z,7.10
2022-11-22T11:57:16.472Z,7.00
2022-11-22T11:59:48.699Z,7.20
2022-11-22T12:02:26.018Z,7.10
2022-11-22T12:04:55.858Z,7.30
2022-11-22T12:11:55.956Z,7.30
2022-11-22T12:15:10.294Z,7.30
2022-11-22T12:17:58.054Z,7.30
2022-11-22T12:20:59.368Z,7.10
2022-11-22T12:24:19.536Z,7.10
2022-11-22T12:26:46.792Z,7.30
2022-11-22T12:29:20.003Z,7.30
2022-11-22T12:35:26.283Z,7.20
2022-11-22T12:38:09.221Z,7.00
2022-11-22T12:40:48.048Z,6.90
2022-11-22T12:43:24.565Z,6.90
2022-11-22T12:45:56.527Z,6.80
2022-11-22T12:48:34.156Z,6.80
2022-11-22T12:51:08.926Z,6.90
2022-11-22T12:53:40.992Z,6.90
2022-11-22T12:56:28.401Z,6.90
2022-11-22T12:59:20.767Z,6.90
2022-11-22T13:02:24.150Z,7.10
2022-11-22T13:05:31.079Z,7.20
2022-11-22T13:08:55.570Z,7.20
2022-11-22T13:14:58.948Z,7.10
2022-11-22T13:17:39.951Z,7.10
2022-11-22T13:20:16.802Z,7.10
2022-11-22T13:22:55.661Z,7.10
2022-11-22T13:25:51.054Z,7.00
2022-11-22T13:29:09.163Z,7.10
2022-11-22T13:32:09.168Z,7.00
2022-11-22T13:34:44.296Z,7.00
2022-11-22T13:37:16.309Z,7.20
2022-11-22T13:39:49.520Z,6.90
2022-11-22T13:42:23.693Z,6.90
2022-11-22T13:45:11.887Z,7.00
2022-11-22T13:47:43.339Z,7.00
2022-11-22T13:50:52.785Z,7.00
2022-11-22T13:53:33.576Z,6.90
2022-11-22T13:56:45.594Z,6.90
2022-11-22T13:59:27.866Z,6.90
2022-11-22T14:02:02.676Z,6.90
2022-11-22T14:04:43.783Z,6.90
2022-11-22T14:07:27.232Z,7.00
2022-11-22T14:10:00.314Z,7.00
2022-11-22T14:13:08.131Z,6.90
2022-11-22T14:16:22.315Z,6.90
2022-11-22T14:19:09.837Z,7.00
2022-11-22T14:22:09.474Z,6.90
2022-11-22T14:24:57.421Z,6.90
2022-11-22T14:27:51.724Z,6.90
2022-11-22T14:30:24.082Z,6.80
2022-11-22T14:33:14.875Z,6.90
2022-11-22T14:36:20.608Z,6.90
2022-11-22T14:38:49.050Z,6.90
2022-11-22T14:41:45.489Z,6.80
2022-11-22T14:50:46.106Z,6.80
2022-11-22T14:53:34.451Z,6.80
2022-11-22T14:56:19.983Z,6.90
2022-11-22T14:59:05.102Z,6.80
2022-11-22T15:02:17.382Z,6.90
2022-11-22T15:09:12.369Z,6.80
2022-11-22T15:09:23.698Z,6.90
2022-11-22T15:57:32.067Z,6.60
2022-11-22T16:00:03.042Z,6.50
2022-11-22T16:02:57.714Z,6.50
2022-11-22T16:12:02.374Z,6.50
2022-11-22T16:14:59.920Z,6.50
2022-11-22T16:17:46.264Z,6.50
2022-11-22T16:21:22.225Z,6.50
2022-11-22T16:27:38.383Z,6.50
2022-11-22T16:30:23.493Z,6.50
2022-11-22T16:32:56.538Z,6.40
2022-11-22T16:35:29.799Z,6.40
2022-11-22T16:37:58.338Z,6.50
2022-11-22T16:40:26.713Z,6.50
2022-11-22T16:42:55.024Z,6.50
2022-11-22T16:45:23.943Z,6.50
2022-11-22T16:48:09.867Z,6.40
2022-11-22T16:51:05.596Z,6.40
2022-11-22T16:53:49.108Z,6.50
2022-11-22T16:56:24.101Z,6.40
2022-11-22T16:59:30.630Z,6.40
2022-11-22T17:02:07.019Z,6.30
2022-11-22T17:04:48.985Z,6.10
2022-11-22T17:07:18.721Z,6.00
2022-11-22T17:09:53.004Z,6.00
2022-11-22T17:12:35.452Z,6.00
2022-11-22T17:15:04.293Z,6.10
2022-11-22T17:17:37.731Z,6.10
2022-11-22T17:20:06.930Z,6.10
2022-11-22T17:22:36.915Z,6.10
2022-11-22T17:25:05.624Z,6.10
2022-11-22T17:27:41.963Z,6.10
2022-11-22T17:30:13.318Z,6.00
2022-11-22T17:32:44.911Z,6.10
2022-11-22T17:35:26.829Z,6.00
2022-11-22T17:37:57.116Z,6.10
2022-11-22T17:40:27.028Z,6.10
2022-11-22T17:42:55.784Z,6.10
2022-11-22T17:45:24.370Z,6.00
2022-11-22T17:47:53.397Z,6.10
2022-11-22T17:50:21.705Z,6.10
2022-11-22T17:52:50.039Z,6.10
2022-11-22T17:55:19.906Z,6.10
2022-11-22T17:57:55.994Z,6.20
2022-11-22T18:00:48.944Z,6.20
2022-11-22T18:03:24.999Z,6.30
2022-11-22T18:06:37.055Z,6.20
2022-11-22T18:09:18.947Z,6.30
2022-11-22T18:12:20.945Z,6.50
2022-11-22T18:14:49.834Z,6.40
2022-11-22T18:17:18.147Z,6.40
2022-11-22T18:19:49.620Z,6.40
2022-11-22T18:22:19.134Z,6.40
2022-11-22T18:24:56.287Z,6.40
2022-11-22T18:28:27.748Z,6.40
2022-11-22T18:34:27.678Z,6.50
2022-11-22T18:37:02.135Z,6.40
2022-11-22T18:39:33.792Z,6.50
2022-11-22T18:42:02.784Z,6.40
2022-11-22T18:44:31.061Z,6.40
2022-11-22T18:46:59.480Z,6.40
2022-11-22T18:49:29.722Z,6.50
2022-11-22T18:51:58.397Z,6.50
2022-11-22T18:54:26.715Z,6.50
2022-11-22T18:56:55.601Z,6.50
2022-11-22T18:59:25.054Z,6.50
2022-11-22T19:01:53.495Z,6.50
2022-11-22T19:04:21.718Z,6.50
2022-11-22T19:06:51.737Z,6.50
2022-11-22T19:09:20.670Z,6.50
2022-11-22T19:11:52.595Z,6.50
2022-11-22T19:14:35.649Z,6.50
2022-11-22T19:17:30.807Z,6.50
2022-11-22T19:20:55.781Z,6.50
2022-11-22T19:23:33.152Z,6.50
2022-11-22T19:26:04.016Z,6.50
2022-11-22T19:28:32.325Z,6.50
2022-11-22T19:31:04.560Z,6.50
2022-11-22T19:34:05.931Z,6.50
2022-11-22T19:39:45.937Z,6.50
2022-11-22T19:42:14.339Z,6.50
2022-11-22T19:44:44.613Z,6.50
2022-11-22T19:47:14.623Z,6.50
2022-11-22T19:49:42.884Z,6.50
2022-11-22T19:52:11.286Z,6.60
2022-11-22T19:54:43.948Z,6.60
2022-11-22T19:57:13.652Z,6.50
2022-11-22T19:59:44.010Z,6.50
2022-11-22T20:02:22.964Z,6.50
2022-11-22T20:04:58.776Z,6.50
2022-11-22T20:07:27.627Z,6.50
2022-11-22T20:09:59.457Z,6.40
2022-11-22T20:12:29.379Z,6.50
2022-11-22T20:14:57.616Z,6.50
2022-11-22T20:17:26.333Z,6.50
2022-11-22T20:19:54.706Z,6.50
2022-11-22T20:22:24.625Z,6.40
2022-11-22T20:24:53.969Z,6.40
2022-11-22T20:27:24.847Z,6.40
2022-11-22T20:30:04.377Z,6.40
2022-11-22T20:36:02.385Z,6.40
2022-11-22T20:38:47.510Z,6.50
2022-11-22T20:41:18.016Z,6.40
2022-11-22T20:43:49.505Z,6.40
2022-11-22T20:46:21.562Z,6.40
2022-11-22T20:48:59.240Z,6.30
2022-11-22T20:51:28.807Z,6.10
2022-11-22T20:53:57.668Z,6.10
2022-11-22T20:56:26.230Z,6.10
2022-11-22T20:58:55.203Z,6.10
2022-11-22T21:01:28.309Z,6.00
2022-11-22T21:03:56.737Z,5.90
2022-11-22T21:06:27.611Z,5.90
2022-11-22T21:08:56.461Z,5.90
2022-11-22T21:11:26.920Z,5.90
2022-11-22T21:13:56.384Z,5.90
2022-11-22T21:16:28.141Z,5.90
2022-11-22T21:18:58.254Z,6.00
2022-11-22T21:21:27.163Z,6.00
2022-11-22T21:23:58.427Z,6.00
2022-11-22T21:26:27.872Z,6.00
2022-11-22T21:28:56.325Z,6.00
2022-11-22T21:31:26.551Z,6.00
2022-11-22T21:33:54.917Z,6.00
2022-11-22T21:36:27.607Z,6.00
2022-11-22T21:42:15.865Z,6.00
2022-11-22T21:44:45.015Z,6.10
2022-11-22T21:47:16.109Z,6.10
2022-11-22T21:49:47.541Z,6.10
2022-11-22T21:52:19.020Z,6.10
2022-11-22T21:54:47.298Z,6.20
2022-11-22T21:57:16.758Z,6.20
2022-11-22T21:59:44.967Z,6.20
2022-11-22T22:02:13.270Z,6.20
2022-11-22T22:04:44.558Z,6.30
2022-11-22T22:07:36.701Z,6.30
2022-11-22T22:10:03.894Z,6.20
2022-11-22T22:12:33.506Z,6.20
2022-11-22T22:15:03.690Z,6.30
2022-11-22T22:18:04.438Z,6.30
2022-11-22T22:20:42.771Z,6.30
2022-11-22T22:23:25.666Z,6.30
2022-11-22T22:25:59.515Z,6.30
2022-11-22T22:28:30.816Z,6.30
2022-11-22T22:31:11.588Z,6.30
2022-11-22T22:33:41.400Z,6.30
2022-11-22T22:36:14.520Z,6.30
2022-11-22T22:38:43.248Z,6.30
2022-11-22T22:41:15.124Z,6.30
2022-11-22T22:43:47.596Z,6.30
2022-11-22T22:46:17.369Z,6.30
2022-11-22T22:48:47.446Z,6.30
2022-11-22T22:51:19.362Z,6.30
2022-11-22T22:53:48.451Z,6.30
2022-11-22T22:56:18.180Z,6.30
2022-11-22T22:58:46.615Z,6.30
2022-11-22T23:01:31.166Z,6.20
2022-11-22T23:06:54.115Z,6.20
2022-11-22T23:09:22.469Z,6.20
2022-11-22T23:12:08.166Z,6.20
2022-11-22T23:14:36.522Z,6.20
2022-11-22T23:17:05.120Z,6.20
2022-11-22T23:19:33.966Z,6.20
2022-11-22T23:22:04.398Z,6.20
2022-11-22T23:24:33.523Z,6.20
2022-11-22T23:27:02.172Z,6.20
2022-11-22T23:29:30.712Z,6.20
2022-11-22T23:31:59.171Z,6.30
2022-11-22T23:34:27.443Z,6.30
2022-11-22T23:36:56.311Z,6.30
2022-11-22T23:39:26.122Z,6.30
2022-11-22T23:41:54.341Z,6.30
2022-11-22T23:44:22.667Z,6.30
2022-11-22T23:46:51.183Z,6.30
2022-11-22T23:49:19.560Z,6.30
2022-11-22T23:51:50.283Z,6.30
2022-11-22T23:54:18.719Z,6.30
2022-11-22T23:56:48.329Z,6.30
2022-11-22T23:59:17.729Z,6.30
